createdAt,value
2018-05-08T00:00:49.782Z,40.20
2018-05-08T00:03:17.393Z,39.60
2018-05-08T00:05:45.006Z,39.80
2018-05-08T00:08:12.608Z,39.80
2018-05-08T00:10:40.231Z,40.00
2018-05-08T00:13:08.600Z,40.70
2018-05-08T00:15:36.223Z,40.10
2018-05-08T00:18:03.848Z,40.10
2018-05-08T00:20:32.208Z,40.30
2018-05-08T00:22:59.810Z,40.20
2018-05-08T00:25:27.436Z,40.20
2018-05-08T00:27:54.982Z,40.40
2018-05-08T00:30:22.606Z,40.60
2018-05-08T00:32:50.222Z,40.50
2018-05-08T00:35:18.594Z,40.70
2018-05-08T00:37:47.700Z,40.70
2018-05-08T00:40:15.306Z,40.60
2018-05-08T00:42:42.910Z,40.70
2018-05-08T00:45:10.506Z,40.90
2018-05-08T00:47:38.108Z,41.10
2018-05-08T00:50:05.718Z,41.10
2018-05-08T00:52:33.359Z,41.20
2018-05-08T00:55:04.697Z,41.20
2018-05-08T00:57:32.289Z,41.30
2018-05-08T00:59:59.880Z,41.40
2018-05-08T01:02:27.461Z,41.30
2018-05-08T01:04:55.143Z,41.30
2018-05-08T01:07:22.700Z,41.40
2018-05-08T01:09:50.323Z,41.40
2018-05-08T01:12:17.936Z,41.60
2018-05-08T01:14:46.321Z,41.90
2018-05-08T01:17:14.702Z,42.00
2018-05-08T01:19:43.091Z,42.20
2018-05-08T01:22:10.737Z,42.20
2018-05-08T01:24:39.122Z,42.50
2018-05-08T01:27:07.475Z,42.60
2018-05-08T01:29:35.089Z,42.50
2018-05-08T01:32:02.701Z,42.40
2018-05-08T01:34:30.345Z,42.70
2018-05-08T01:36:57.948Z,42.80
2018-05-08T01:39:26.314Z,42.90
2018-05-08T01:41:54.681Z,43.00
2018-05-08T01:44:22.296Z,42.90
2018-05-08T01:46:49.896Z,42.90
2018-05-08T01:49:17.557Z,43.10
2018-05-08T01:51:45.152Z,43.20
2018-05-08T01:54:12.742Z,43.60
2018-05-08T01:56:40.331Z,43.60
2018-05-08T01:59:07.921Z,43.70
2018-05-08T02:01:35.575Z,44.00
2018-05-08T02:04:03.175Z,44.40
2018-05-08T02:06:30.793Z,44.70
2018-05-08T02:08:58.411Z,45.20
2018-05-08T02:11:26.026Z,45.30
2018-05-08T02:13:54.423Z,45.20
2018-05-08T02:16:22.045Z,45.20
2018-05-08T02:18:49.635Z,45.60
2018-05-08T02:21:18.020Z,45.60
2018-05-08T02:23:45.581Z,45.60
2018-05-08T02:26:13.193Z,45.90
2018-05-08T02:28:40.785Z,45.70
2018-05-08T02:31:08.613Z,46.00
2018-05-08T02:33:36.258Z,46.10
2018-05-08T02:36:03.886Z,46.20
2018-05-08T02:38:32.233Z,46.50
2018-05-08T02:40:59.816Z,46.40
2018-05-08T02:43:28.235Z,46.60
2018-05-08T02:45:55.874Z,46.60
2018-05-08T02:48:23.513Z,47.30
2018-05-08T02:50:51.879Z,47.60
2018-05-08T02:53:19.503Z,47.50
2018-05-08T02:55:47.092Z,47.50
2018-05-08T02:58:14.678Z,48.40
2018-05-08T03:00:43.064Z,48.30
2018-05-08T03:03:10.666Z,48.30
2018-05-08T03:05:38.293Z,48.60
2018-05-08T03:08:06.676Z,49.30
2018-05-08T03:10:34.302Z,49.30
2018-05-08T03:13:01.914Z,49.80
2018-05-08T03:15:29.527Z,50.10
2018-05-08T03:17:57.109Z,49.90
2018-05-08T03:20:24.709Z,50.30
2018-05-08T03:22:52.317Z,50.20
2018-05-08T03:25:20.661Z,50.30
2018-05-08T03:27:48.281Z,50.10
2018-05-08T03:30:15.879Z,49.90
2018-05-08T03:32:43.482Z,49.70
2018-05-08T03:35:11.835Z,49.50
2018-05-08T03:37:39.577Z,49.50
2018-05-08T03:40:07.173Z,49.40
2018-05-08T03:42:34.785Z,49.40
2018-05-08T03:45:02.404Z,49.30
2018-05-08T03:47:30.812Z,49.50
2018-05-08T03:49:58.433Z,49.40
2018-05-08T03:52:26.065Z,49.40
2018-05-08T03:54:53.698Z,50.00
2018-05-08T03:57:21.292Z,49.50
2018-05-08T03:59:48.867Z,49.70
2018-05-08T04:02:28.302Z,49.70
2018-05-08T04:05:07.921Z,49.80
2018-05-08T04:07:47.357Z,49.70
2018-05-08T04:10:14.971Z,49.80
2018-05-08T04:12:43.395Z,49.80
2018-05-08T04:15:11.073Z,49.80
2018-05-08T04:17:38.570Z,49.80
2018-05-08T04:20:06.990Z,50.20
2018-05-08T04:22:34.558Z,50.10
2018-05-08T04:25:02.172Z,50.00
2018-05-08T04:27:30.530Z,50.10
2018-05-08T04:29:58.167Z,50.10
2018-05-08T04:32:25.798Z,49.80
2018-05-08T04:34:53.388Z,49.30
2018-05-08T04:37:26.888Z,49.30
2018-05-08T04:39:55.468Z,49.00
2018-05-08T04:42:37.393Z,48.20
2018-05-08T04:45:04.966Z,47.10
2018-05-08T04:47:33.624Z,46.00
2018-05-08T04:50:01.240Z,46.00
2018-05-08T04:52:28.866Z,45.20
2018-05-08T04:55:03.410Z,44.30
2018-05-08T04:57:38.400Z,44.30
2018-05-08T05:00:06.036Z,43.70
2018-05-08T05:02:33.679Z,43.20
2018-05-08T05:05:01.288Z,42.40
2018-05-08T05:07:28.926Z,41.00
2018-05-08T05:09:56.558Z,38.80
2018-05-08T05:12:24.342Z,36.60
2018-05-08T05:14:51.912Z,35.20
2018-05-08T05:17:19.480Z,34.00
2018-05-08T05:19:47.082Z,32.30
2018-05-08T05:22:15.483Z,30.60
2018-05-08T05:24:43.076Z,30.50
2018-05-08T05:27:10.797Z,29.40
2018-05-08T05:29:39.574Z,27.60
2018-05-08T05:32:07.944Z,27.30
2018-05-08T05:34:36.351Z,27.70
2018-05-08T05:37:04.017Z,27.70
2018-05-08T05:39:31.639Z,27.60
2018-05-08T05:41:59.270Z,27.50
2018-05-08T05:44:27.069Z,27.10
2018-05-08T05:46:54.651Z,27.50
2018-05-08T05:49:22.271Z,27.40
2018-05-08T05:51:49.831Z,26.60
2018-05-08T05:54:17.443Z,25.80
2018-05-08T05:56:45.019Z,25.60
2018-05-08T05:59:12.609Z,26.00
2018-05-08T06:01:40.173Z,26.40
2018-05-08T06:04:07.732Z,26.10
2018-05-08T06:06:35.317Z,25.50
2018-05-08T06:09:02.855Z,26.30
2018-05-08T06:11:30.475Z,26.50
2018-05-08T06:13:58.007Z,26.00
2018-05-08T06:16:25.639Z,24.70
2018-05-08T06:18:53.223Z,24.90
2018-05-08T06:21:21.591Z,24.70
2018-05-08T06:23:49.161Z,24.60
2018-05-08T06:26:17.831Z,24.40
2018-05-08T06:28:45.377Z,24.30
2018-05-08T06:31:12.943Z,23.40
2018-05-08T06:33:40.537Z,24.00
2018-05-08T06:36:08.176Z,25.20
2018-05-08T06:38:36.577Z,27.30
2018-05-08T06:41:04.219Z,27.20
2018-05-08T06:43:32.591Z,30.60
2018-05-08T06:46:00.187Z,30.60
2018-05-08T06:48:27.782Z,31.40
2018-05-08T06:50:55.381Z,32.90
2018-05-08T06:53:23.763Z,34.90
2018-05-08T06:55:52.137Z,35.40
2018-05-08T06:58:20.512Z,36.00
2018-05-08T07:00:48.102Z,35.80
2018-05-08T07:03:15.720Z,36.50
2018-05-08T07:05:43.315Z,37.00
2018-05-08T07:08:10.880Z,36.80
2018-05-08T07:10:38.460Z,36.50
2018-05-08T07:13:06.035Z,37.00
2018-05-08T07:15:33.629Z,37.70
2018-05-08T07:18:01.210Z,37.20
2018-05-08T07:20:29.590Z,37.60
2018-05-08T07:22:57.899Z,37.20
2018-05-08T07:25:25.489Z,37.10
2018-05-08T07:27:53.105Z,36.80
2018-05-08T07:30:20.747Z,36.80
2018-05-08T07:32:49.159Z,37.70
2018-05-08T07:35:16.759Z,37.10
2018-05-08T07:37:44.690Z,37.00
2018-05-08T07:40:12.309Z,36.20
2018-05-08T07:42:40.915Z,36.00
2018-05-08T07:45:09.937Z,36.20
2018-05-08T07:47:37.708Z,36.10
2018-05-08T07:50:05.310Z,36.30
2018-05-08T07:52:33.629Z,35.30
2018-05-08T07:55:01.249Z,35.10
2018-05-08T07:57:29.604Z,36.10
2018-05-08T07:59:58.041Z,35.30
2018-05-08T08:02:25.617Z,35.10
2018-05-08T08:04:53.251Z,33.50
2018-05-08T08:07:20.829Z,34.30
2018-05-08T08:09:48.449Z,35.60
2018-05-08T08:12:16.824Z,35.10
2018-05-08T08:14:45.221Z,32.20
2018-05-08T08:17:13.553Z,32.60
2018-05-08T08:19:41.177Z,32.60
2018-05-08T08:22:08.794Z,32.20
2018-05-08T08:24:37.237Z,34.10
2018-05-08T08:27:04.873Z,34.10
2018-05-08T08:29:32.491Z,34.00
2018-05-08T08:32:00.114Z,34.50
2018-05-08T08:34:27.730Z,35.10
2018-05-08T08:36:56.119Z,32.30
2018-05-08T08:39:24.484Z,32.00
2018-05-08T08:41:52.855Z,32.10
2018-05-08T08:44:20.459Z,32.10
2018-05-08T08:46:48.142Z,31.90
2018-05-08T08:49:15.769Z,32.20
2018-05-08T08:51:44.146Z,31.70
2018-05-08T08:54:12.495Z,32.40
2018-05-08T08:56:40.107Z,32.30
2018-05-08T08:59:07.731Z,31.90
2018-05-08T09:01:36.134Z,31.30
2018-05-08T09:04:03.826Z,31.20
2018-05-08T09:06:31.362Z,29.90
2018-05-08T09:08:59.007Z,30.20
2018-05-08T09:11:26.621Z,29.50
2018-05-08T09:13:54.187Z,29.70
2018-05-08T09:16:21.841Z,29.50
2018-05-08T09:18:49.431Z,28.90
2018-05-08T09:21:17.066Z,28.80
2018-05-08T09:23:44.674Z,29.80
2018-05-08T09:26:13.069Z,28.70
2018-05-08T09:28:40.643Z,28.70
2018-05-08T09:31:08.253Z,29.90
2018-05-08T09:33:36.613Z,29.80
2018-05-08T09:36:04.218Z,29.60
2018-05-08T09:38:31.797Z,29.50
2018-05-08T09:40:59.448Z,30.10
2018-05-08T09:43:26.964Z,29.80
2018-05-08T09:45:54.538Z,29.70
2018-05-08T09:48:22.112Z,29.80
2018-05-08T09:50:50.437Z,30.00
2018-05-08T09:53:18.026Z,30.00
2018-05-08T09:55:45.668Z,30.00
2018-05-08T09:58:13.262Z,30.50
2018-05-08T10:00:41.621Z,31.10
2018-05-08T10:03:10.739Z,30.60
2018-05-08T10:05:39.111Z,31.00
2018-05-08T10:08:06.756Z,31.00
2018-05-08T10:10:34.375Z,30.60
2018-05-08T10:13:01.975Z,31.10
2018-05-08T10:15:29.590Z,31.10
2018-05-08T10:17:57.151Z,31.40
2018-05-08T10:20:24.753Z,31.50
2018-05-08T10:22:52.341Z,31.20
2018-05-08T10:25:20.707Z,32.50
2018-05-08T10:27:48.326Z,32.50
2018-05-08T10:30:15.963Z,33.00
2018-05-08T10:32:43.626Z,31.80
2018-05-08T10:35:11.263Z,32.10
2018-05-08T10:37:39.610Z,31.80
2018-05-08T10:40:07.247Z,31.80
2018-05-08T10:42:34.878Z,31.80
2018-05-08T10:45:02.510Z,32.00
2018-05-08T10:47:30.940Z,32.00
2018-05-08T10:49:58.589Z,32.00
2018-05-08T10:52:26.178Z,32.10
2018-05-08T10:54:53.763Z,32.40
2018-05-08T10:57:21.374Z,32.00
2018-05-08T10:59:48.959Z,32.20
2018-05-08T11:02:16.588Z,31.90
2018-05-08T11:04:44.940Z,32.10
2018-05-08T11:07:12.516Z,32.10
2018-05-08T11:09:40.877Z,30.80
2018-05-08T11:12:08.476Z,30.70
2018-05-08T11:14:36.085Z,30.40
2018-05-08T11:17:03.680Z,30.50
2018-05-08T11:19:32.020Z,31.10
2018-05-08T11:21:59.644Z,31.10
2018-05-08T11:24:27.260Z,31.10
2018-05-08T11:26:54.915Z,31.40
2018-05-08T11:29:22.519Z,31.40
2018-05-08T11:31:50.176Z,30.80
2018-05-08T11:34:18.532Z,31.40
2018-05-08T11:36:46.884Z,31.30
2018-05-08T11:39:14.550Z,31.30
2018-05-08T11:41:42.163Z,31.00
2018-05-08T11:44:09.826Z,30.40
2018-05-08T11:46:37.448Z,32.60
2018-05-08T11:49:05.058Z,30.60
2018-05-08T11:51:32.616Z,28.60
2018-05-08T11:54:00.224Z,27.40
2018-05-08T11:56:27.860Z,26.10
2018-05-08T11:58:55.438Z,25.00
2018-05-08T12:01:23.094Z,24.50
2018-05-08T12:03:50.685Z,25.10
2018-05-08T12:06:19.474Z,25.10
2018-05-08T12:08:47.869Z,25.10
2018-05-08T12:11:15.440Z,24.60
2018-05-08T12:13:43.038Z,24.10
2018-05-08T12:16:10.635Z,23.20
2018-05-08T12:18:38.223Z,22.40
2018-05-08T12:21:05.858Z,22.70
2018-05-08T12:23:33.467Z,22.70
2018-05-08T12:26:01.055Z,23.20
2018-05-08T12:28:28.664Z,23.40
2018-05-08T12:30:56.295Z,22.80
2018-05-08T12:33:24.676Z,21.40
2018-05-08T12:35:53.041Z,20.80
2018-05-08T12:38:20.652Z,20.70
2018-05-08T12:40:48.251Z,20.10
2018-05-08T12:43:16.680Z,21.20
2018-05-08T12:45:44.309Z,21.20
2018-05-08T12:48:12.678Z,21.40
2018-05-08T12:50:40.289Z,21.30
2018-05-08T12:53:08.088Z,21.40
2018-05-08T12:55:35.706Z,21.60
2018-05-08T12:58:03.318Z,22.10
2018-05-08T13:00:30.944Z,21.80
2018-05-08T13:02:58.553Z,20.90
2018-05-08T13:05:27.013Z,21.30
2018-05-08T13:07:54.546Z,21.20
2018-05-08T13:10:22.126Z,23.20
2018-05-08T13:12:49.766Z,22.30
2018-05-08T13:15:18.602Z,22.60
2018-05-08T13:17:46.158Z,21.80
2018-05-08T13:20:13.754Z,22.40
2018-05-08T13:22:41.370Z,24.30
2018-05-08T13:25:08.988Z,23.40
2018-05-08T13:27:36.579Z,24.10
2018-05-08T13:30:04.227Z,25.00
2018-05-08T13:32:31.857Z,24.80
2018-05-08T13:34:59.436Z,24.50
2018-05-08T13:37:27.006Z,25.10
2018-05-08T13:39:54.616Z,24.60
2018-05-08T13:42:23.017Z,26.10
2018-05-08T13:44:50.655Z,26.00
2018-05-08T13:47:19.599Z,26.50
2018-05-08T13:49:47.189Z,26.40
2018-05-08T13:52:15.562Z,25.60
2018-05-08T13:54:43.183Z,25.60
2018-05-08T13:57:10.729Z,26.10
2018-05-08T13:59:38.335Z,26.20
2018-05-08T14:02:05.961Z,26.50
2018-05-08T14:04:33.565Z,25.30
2018-05-08T14:07:01.133Z,25.50
2018-05-08T14:09:28.767Z,24.30
2018-05-08T14:11:56.359Z,23.10
2018-05-08T14:14:23.978Z,23.20
2018-05-08T14:16:51.557Z,23.80
2018-05-08T14:19:19.212Z,25.00
2018-05-08T14:21:46.867Z,23.10
2018-05-08T14:24:14.470Z,24.20
2018-05-08T14:26:42.860Z,23.10
2018-05-08T14:29:11.220Z,22.80
2018-05-08T14:31:39.624Z,23.70
2018-05-08T14:34:07.263Z,23.20
2018-05-08T14:36:35.675Z,22.80
2018-05-08T14:39:03.277Z,22.80
2018-05-08T14:41:30.939Z,22.10
2018-05-08T14:43:58.548Z,23.30
2018-05-08T14:46:26.913Z,24.50
2018-05-08T14:48:54.523Z,24.50
2018-05-08T14:51:22.226Z,24.80
2018-05-08T14:53:49.820Z,25.20
2018-05-08T14:56:18.556Z,24.40
2018-05-08T14:58:46.941Z,25.20
2018-05-08T15:01:14.530Z,25.50
2018-05-08T15:03:42.904Z,25.60
2018-05-08T15:06:10.481Z,25.60
2018-05-08T15:08:38.108Z,25.30
2018-05-08T15:11:05.744Z,24.60
2018-05-08T15:13:33.325Z,24.10
2018-05-08T15:16:00.875Z,24.10
2018-05-08T15:18:28.490Z,23.60
2018-05-08T15:20:56.417Z,24.10
2018-05-08T15:23:24.973Z,23.90
2018-05-08T15:25:52.588Z,23.80
2018-05-08T15:28:20.942Z,24.00
2018-05-08T15:30:49.971Z,23.60
2018-05-08T15:33:17.848Z,23.60
2018-05-08T15:35:45.406Z,23.50
2018-05-08T15:38:13.021Z,23.60
2018-05-08T15:40:40.621Z,23.90
2018-05-08T15:43:08.183Z,24.50
2018-05-08T15:45:35.809Z,25.10
2018-05-08T15:48:03.381Z,25.50
2018-05-08T15:50:31.729Z,25.00
2018-05-08T15:52:59.341Z,25.00
2018-05-08T15:55:26.950Z,24.70
2018-05-08T15:57:59.344Z,25.40
2018-05-08T16:00:26.931Z,25.90
2018-05-08T16:03:11.985Z,25.70
2018-05-08T16:05:40.085Z,25.00
2018-05-08T16:08:07.671Z,25.40
2018-05-08T16:10:35.263Z,25.60
2018-05-08T16:13:02.858Z,25.60
2018-05-08T16:15:49.681Z,26.30
2018-05-08T16:18:17.336Z,27.00
2018-05-08T16:20:45.889Z,27.90
2018-05-08T16:23:14.284Z,28.30
2018-05-08T16:25:42.188Z,28.20
2018-05-08T16:28:09.848Z,28.40
2018-05-08T16:30:38.453Z,28.10
2018-05-08T16:33:06.804Z,28.10
2018-05-08T16:35:34.403Z,28.10
2018-05-08T16:38:02.004Z,28.10
2018-05-08T16:40:30.534Z,27.90
2018-05-08T16:42:58.175Z,28.50
2018-05-08T16:45:25.844Z,28.10
2018-05-08T16:47:53.493Z,27.20
2018-05-08T16:50:21.106Z,27.00
2018-05-08T16:52:49.452Z,27.40
2018-05-08T16:55:18.920Z,27.40
2018-05-08T16:57:46.533Z,27.60
2018-05-08T17:00:14.118Z,28.00
2018-05-08T17:02:42.491Z,28.30
2018-05-08T17:05:17.557Z,28.50
2018-05-08T17:10:44.718Z,28.90
2018-05-08T17:13:12.322Z,28.90
2018-05-08T17:15:59.308Z,29.40
2018-05-08T17:18:28.339Z,29.10
2018-05-08T17:20:56.731Z,28.60
2018-05-08T17:23:24.564Z,28.60
2018-05-08T17:25:52.824Z,28.90
2018-05-08T17:28:20.475Z,28.90
2018-05-08T17:30:48.064Z,29.20
2018-05-08T17:33:16.754Z,30.20
2018-05-08T17:35:44.346Z,30.00
2018-05-08T17:38:11.887Z,30.20
2018-05-08T17:40:39.550Z,30.30
2018-05-08T17:43:07.161Z,30.10
2018-05-08T17:45:34.794Z,30.10
2018-05-08T17:48:05.139Z,30.50
2018-05-08T17:50:33.483Z,30.50
2018-05-08T17:53:01.105Z,30.50
2018-05-08T17:55:28.720Z,30.30
2018-05-08T17:57:57.101Z,30.40
2018-05-08T18:00:24.684Z,30.30
2018-05-08T18:02:52.312Z,30.00
2018-05-08T18:05:19.927Z,30.30
2018-05-08T18:07:47.562Z,30.30
2018-05-08T18:10:15.167Z,30.60
2018-05-08T18:12:42.800Z,30.90
2018-05-08T18:15:10.421Z,30.90
2018-05-08T18:17:38.340Z,31.00
2018-05-08T18:20:05.830Z,31.00
2018-05-08T18:22:33.418Z,31.60
2018-05-08T18:25:01.799Z,31.90
2018-05-08T18:27:30.135Z,32.20
2018-05-08T18:29:57.748Z,32.10
2018-05-08T18:32:26.115Z,32.60
2018-05-08T18:34:54.469Z,32.60
2018-05-08T18:37:22.076Z,32.60
2018-05-08T18:40:00.118Z,32.80
2018-05-08T18:42:27.705Z,33.60
2018-05-08T18:44:55.348Z,34.10
2018-05-08T18:47:22.953Z,34.30
2018-05-08T18:49:50.556Z,34.60
2018-05-08T18:52:18.165Z,35.00
2018-05-08T18:54:46.582Z,35.30
2018-05-08T18:57:14.178Z,35.30
2018-05-08T18:59:41.773Z,35.50
2018-05-08T19:02:27.988Z,35.80
2018-05-08T19:04:55.778Z,35.70
2018-05-08T19:07:23.384Z,36.00
2018-05-08T19:09:50.954Z,36.20
2018-05-08T19:12:19.312Z,36.40
2018-05-08T19:14:46.955Z,36.30
2018-05-08T19:17:22.013Z,36.90
2018-05-08T19:19:56.083Z,37.30
2018-05-08T19:22:23.698Z,37.20
2018-05-08T19:24:51.305Z,37.00
2018-05-08T19:27:19.427Z,37.10
2018-05-08T19:29:52.720Z,37.20
2018-05-08T19:32:21.133Z,37.50
2018-05-08T19:34:54.329Z,37.30
2018-05-08T19:37:27.641Z,37.50
2018-05-08T19:39:55.259Z,37.80
2018-05-08T19:42:22.956Z,37.90
2018-05-08T19:44:50.558Z,39.00
2018-05-08T19:47:18.930Z,39.90
2018-05-08T19:49:46.607Z,39.80
2018-05-08T19:52:14.989Z,40.60
2018-05-08T19:54:46.747Z,40.30
2018-05-08T19:57:15.575Z,41.70
2018-05-08T19:59:43.183Z,41.40
2018-05-08T20:02:11.628Z,40.30
2018-05-08T20:04:39.397Z,40.30
2018-05-08T20:07:07.143Z,40.90
2018-05-08T20:09:34.767Z,40.20
2018-05-08T20:12:03.259Z,41.30
2018-05-08T20:14:31.105Z,40.60
2018-05-08T20:16:58.777Z,41.00
2018-05-08T20:19:27.447Z,40.60
2018-05-08T20:21:55.613Z,40.50
2018-05-08T20:24:23.363Z,40.70
2018-05-08T20:26:51.441Z,41.00
2018-05-08T20:29:19.059Z,40.90
2018-05-08T20:31:46.697Z,41.40
2018-05-08T20:34:15.120Z,41.30
2018-05-08T20:36:42.713Z,41.20
2018-05-08T20:39:13.521Z,41.60
2018-05-08T20:41:41.143Z,41.50
2018-05-08T20:44:08.752Z,42.30
2018-05-08T20:46:36.313Z,41.90
2018-05-08T20:49:04.167Z,41.80
2018-05-08T20:51:31.733Z,42.20
2018-05-08T20:53:59.372Z,42.70
2018-05-08T20:56:26.924Z,42.80
2018-05-08T20:58:54.615Z,42.70
2018-05-08T21:01:22.352Z,43.00
2018-05-08T21:03:50.617Z,43.20
2018-05-08T21:06:18.251Z,43.20
2018-05-08T21:08:45.868Z,43.30
2018-05-08T21:11:13.496Z,43.70
2018-05-08T21:13:41.863Z,44.10
2018-05-08T21:16:10.257Z,44.00
2018-05-08T21:18:37.881Z,44.00
2018-05-08T21:21:05.637Z,44.00
2018-05-08T21:23:33.282Z,44.10
2018-05-08T21:26:00.880Z,44.50
2018-05-08T21:28:34.091Z,44.30
2018-05-08T21:31:08.243Z,44.70
2018-05-08T21:33:35.873Z,44.70
2018-05-08T21:36:03.482Z,44.70
2018-05-08T21:38:31.114Z,44.70
2018-05-08T21:40:58.713Z,45.00
2018-05-08T21:43:26.341Z,45.10
2018-05-08T21:45:53.947Z,45.30
2018-05-08T21:48:21.545Z,45.60
2018-05-08T21:50:49.158Z,45.80
2018-05-08T21:53:16.903Z,45.80
2018-05-08T21:55:44.662Z,45.90
2018-05-08T21:58:12.255Z,46.00
2018-05-08T22:00:40.635Z,46.20
2018-05-08T22:03:09.795Z,46.30
2018-05-08T22:05:37.427Z,46.30
2018-05-08T22:08:04.996Z,46.30
2018-05-08T22:10:32.606Z,46.30
2018-05-08T22:13:00.995Z,46.60
2018-05-08T22:15:28.618Z,46.60
2018-05-08T22:17:56.219Z,47.20
2018-05-08T22:20:23.843Z,47.20
2018-05-08T22:22:51.472Z,46.70
2018-05-08T22:25:19.069Z,46.70
2018-05-08T22:27:46.706Z,46.60
2018-05-08T22:30:14.321Z,46.70
2018-05-08T22:32:42.737Z,47.60
2018-05-08T22:35:10.348Z,47.00
2018-05-08T22:37:37.972Z,47.10
2018-05-08T22:40:05.578Z,47.20
2018-05-08T22:42:33.209Z,47.50
2018-05-08T22:45:00.785Z,47.40
2018-05-08T22:47:28.420Z,47.60
2018-05-08T22:49:56.013Z,47.70
2018-05-08T22:52:23.632Z,47.90
2018-05-08T22:54:51.251Z,48.00
2018-05-08T22:57:18.837Z,48.20
2018-05-08T22:59:46.463Z,48.30
2018-05-08T23:02:14.089Z,48.10
2018-05-08T23:04:41.716Z,48.40
2018-05-08T23:07:10.113Z,48.70
2018-05-08T23:09:37.864Z,48.70
2018-05-08T23:12:05.449Z,48.80
2018-05-08T23:14:33.014Z,49.00
2018-05-08T23:17:00.599Z,49.20
2018-05-08T23:19:28.217Z,49.90
2018-05-08T23:21:55.819Z,49.50
2018-05-08T23:24:23.453Z,49.50
2018-05-08T23:26:51.073Z,49.70
2018-05-08T23:29:19.448Z,50.00
2018-05-08T23:31:47.855Z,50.20
2018-05-08T23:34:16.287Z,50.20
2018-05-08T23:36:43.919Z,50.60
2018-05-08T23:39:11.559Z,50.90
2018-05-08T23:41:39.143Z,50.80
2018-05-08T23:44:06.733Z,51.00
2018-05-08T23:46:34.311Z,51.60
2018-05-08T23:49:02.635Z,51.40
2018-05-08T23:51:30.195Z,51.40
2018-05-08T23:53:57.791Z,51.60
2018-05-08T23:56:25.409Z,51.50
2018-05-08T23:58:53.080Z,51.60
